createdAt,value
2023-09-19T00:00:11.836Z,22.98
2023-09-19T00:01:11.880Z,23.05
2023-09-19T00:02:11.885Z,23.05
2023-09-19T00:03:11.848Z,23.02
2023-09-19T00:04:11.898Z,23.03
2023-09-19T00:05:11.765Z,23.00
2023-09-19T00:06:11.752Z,23.06
2023-09-19T00:07:11.825Z,23.06
2023-09-19T00:08:11.727Z,22.98
2023-09-19T00:09:11.744Z,23.05
2023-09-19T00:10:11.800Z,23.05
2023-09-19T00:11:11.705Z,23.05
2023-09-19T00:12:11.689Z,22.99
2023-09-19T00:13:11.701Z,23.03
2023-09-19T00:14:11.666Z,22.99
2023-09-19T00:15:11.648Z,23.03
2023-09-19T00:16:11.755Z,23.05
2023-09-19T00:17:11.720Z,23.05
2023-09-19T00:18:11.622Z,23.00
2023-09-19T00:19:11.674Z,23.03
2023-09-19T00:20:11.600Z,22.98
2023-09-19T00:21:11.605Z,23.06
2023-09-19T00:22:11.608Z,23.00
2023-09-19T00:23:11.560Z,22.99
2023-09-19T00:24:11.565Z,23.02
2023-09-19T00:25:11.689Z,23.09
2023-09-19T00:26:11.531Z,23.03
2023-09-19T00:27:11.516Z,23.03
2023-09-19T00:28:11.658Z,23.06
2023-09-19T00:29:11.491Z,23.02
2023-09-19T00:30:11.483Z,23.05
2023-09-19T00:31:11.606Z,23.06
2023-09-19T00:32:11.458Z,23.03
2023-09-19T00:33:11.453Z,23.00
2023-09-19T00:34:11.509Z,23.02
2023-09-19T00:35:11.452Z,23.09
2023-09-19T00:36:11.420Z,22.98
2023-09-19T00:37:11.466Z,23.08
2023-09-19T00:38:11.394Z,23.09
2023-09-19T00:39:11.379Z,22.99
2023-09-19T00:40:11.404Z,23.09
2023-09-19T00:41:11.368Z,23.06
2023-09-19T00:42:11.355Z,23.03
2023-09-19T00:43:11.400Z,23.02
2023-09-19T00:44:11.334Z,22.98
2023-09-19T00:45:11.396Z,22.99
2023-09-19T00:46:11.501Z,22.99
2023-09-19T00:47:11.526Z,23.06
2023-09-19T00:48:11.507Z,23.00
2023-09-19T00:49:11.373Z,23.03
2023-09-19T00:50:11.271Z,23.06
2023-09-19T00:51:11.380Z,23.06
2023-09-19T00:52:11.414Z,22.98
2023-09-19T00:53:11.255Z,23.08
2023-09-19T00:54:11.237Z,23.05
2023-09-19T00:55:11.450Z,23.00
2023-09-19T00:56:11.239Z,23.05
2023-09-19T00:57:11.256Z,23.03
2023-09-19T00:58:11.268Z,23.03
2023-09-19T00:59:11.186Z,23.06
2023-09-19T01:00:11.178Z,23.08
2023-09-19T01:01:11.215Z,22.98
2023-09-19T01:02:11.225Z,23.05
2023-09-19T01:03:11.217Z,22.99
2023-09-19T01:04:11.389Z,23.10
2023-09-19T01:05:11.098Z,23.03
2023-09-19T01:06:11.096Z,22.98
2023-09-19T01:07:11.156Z,23.03
2023-09-19T01:08:11.065Z,22.96
2023-09-19T01:09:11.051Z,22.98
2023-09-19T01:10:11.069Z,22.93
2023-09-19T01:11:11.046Z,22.94
2023-09-19T01:12:11.019Z,22.94
2023-09-19T01:13:11.087Z,22.88
2023-09-19T01:14:11.000Z,22.93
2023-09-19T01:15:11.026Z,22.91
2023-09-19T01:16:11.050Z,22.87
2023-09-19T01:17:11.002Z,22.88
2023-09-19T01:18:10.952Z,22.91
2023-09-19T01:19:11.003Z,22.87
2023-09-19T01:20:10.933Z,22.88
2023-09-19T01:21:10.976Z,22.93
2023-09-19T01:22:10.954Z,22.91
2023-09-19T01:23:10.959Z,22.91
2023-09-19T01:24:10.890Z,22.93
2023-09-19T01:25:11.076Z,22.88
2023-09-19T01:26:10.859Z,22.91
2023-09-19T01:27:10.856Z,22.91
2023-09-19T01:28:10.898Z,22.91
2023-09-19T01:29:10.863Z,22.91
2023-09-19T01:30:10.873Z,22.90
2023-09-19T01:31:10.949Z,22.90
2023-09-19T01:32:11.125Z,22.76
2023-09-19T01:33:10.843Z,22.93
2023-09-19T01:34:10.796Z,22.84
2023-09-19T01:35:10.762Z,22.87
2023-09-19T01:36:10.757Z,22.88
2023-09-19T01:37:10.871Z,22.84
2023-09-19T01:38:10.756Z,22.76
2023-09-19T01:39:10.746Z,22.80
2023-09-19T01:40:10.727Z,22.84
2023-09-19T01:41:10.723Z,22.83
2023-09-19T01:42:10.688Z,22.81
2023-09-19T01:43:10.740Z,22.83
2023-09-19T01:44:10.688Z,22.83
2023-09-19T01:45:10.652Z,22.83
2023-09-19T01:46:10.698Z,22.75
2023-09-19T01:47:10.629Z,22.81
2023-09-19T01:48:10.617Z,22.76
2023-09-19T01:49:10.712Z,22.84
2023-09-19T01:50:10.654Z,22.76
2023-09-19T01:51:10.608Z,22.83
2023-09-19T01:52:10.604Z,22.78
2023-09-19T01:53:10.599Z,22.76
2023-09-19T01:54:10.552Z,22.78
2023-09-19T01:55:10.705Z,22.85
2023-09-19T01:56:10.533Z,22.76
2023-09-19T01:57:10.529Z,22.73
2023-09-19T01:58:10.558Z,22.78
2023-09-19T01:59:10.506Z,22.76
2023-09-19T02:00:10.597Z,22.73
2023-09-19T02:01:10.564Z,22.72
2023-09-19T02:02:10.604Z,22.69
2023-09-19T02:03:10.615Z,22.66
2023-09-19T02:04:10.460Z,22.70
2023-09-19T02:05:10.446Z,22.75
2023-09-19T02:06:10.441Z,22.69
2023-09-19T02:07:10.624Z,22.75
2023-09-19T02:08:10.398Z,22.73
2023-09-19T02:09:10.395Z,22.66
2023-09-19T02:10:10.387Z,22.76
2023-09-19T02:11:10.403Z,22.69
2023-09-19T02:12:10.359Z,22.69
2023-09-19T02:13:10.445Z,22.76
2023-09-19T02:14:10.341Z,22.76
2023-09-19T02:15:10.378Z,22.73
2023-09-19T02:16:10.403Z,22.63
2023-09-19T02:17:10.331Z,22.62
2023-09-19T02:18:10.287Z,22.62
2023-09-19T02:19:10.415Z,22.66
2023-09-19T02:20:10.265Z,22.51
2023-09-19T02:21:10.253Z,22.54
2023-09-19T02:22:10.331Z,22.48
2023-09-19T02:23:10.228Z,22.53
2023-09-19T02:24:10.249Z,22.51
2023-09-19T02:25:10.220Z,22.51
2023-09-19T02:26:10.201Z,22.48
2023-09-19T02:27:10.237Z,22.44
2023-09-19T02:28:10.179Z,22.44
2023-09-19T02:29:10.168Z,22.47
2023-09-19T02:30:10.156Z,22.43
2023-09-19T02:31:10.199Z,22.44
2023-09-19T02:32:10.204Z,22.36
2023-09-19T02:33:10.144Z,22.33
2023-09-19T02:34:10.109Z,22.48
2023-09-19T02:35:10.124Z,22.33
2023-09-19T02:36:10.086Z,22.38
2023-09-19T02:37:10.109Z,22.29
2023-09-19T02:38:10.064Z,22.29
2023-09-19T02:39:10.057Z,22.30
2023-09-19T02:40:10.044Z,22.26
2023-09-19T02:41:10.028Z,22.32
2023-09-19T02:42:10.017Z,22.39
2023-09-19T02:43:10.050Z,22.35
2023-09-19T02:44:10.126Z,22.36
2023-09-19T02:45:09.985Z,22.28
2023-09-19T02:46:09.996Z,22.25
2023-09-19T02:47:10.046Z,22.32
2023-09-19T02:48:09.979Z,22.36
2023-09-19T02:49:09.959Z,22.33
2023-09-19T02:50:09.932Z,22.30
2023-09-19T02:51:09.924Z,22.38
2023-09-19T02:52:09.907Z,22.32
2023-09-19T02:53:09.913Z,22.30
2023-09-19T02:54:09.886Z,22.28
2023-09-19T02:55:09.917Z,22.28
2023-09-19T02:56:09.869Z,22.29
2023-09-19T02:57:09.853Z,22.25
2023-09-19T02:58:09.840Z,22.29
2023-09-19T02:59:09.856Z,22.28
2023-09-19T03:00:09.816Z,22.25
2023-09-19T03:01:09.856Z,22.22
2023-09-19T03:02:09.884Z,22.20
2023-09-19T03:03:09.915Z,22.26
2023-09-19T03:04:09.783Z,22.28
2023-09-19T03:05:09.760Z,22.13
2023-09-19T03:06:09.752Z,22.11
2023-09-19T03:07:09.770Z,22.18
2023-09-19T03:08:09.732Z,22.17
2023-09-19T03:09:09.735Z,22.06
2023-09-19T03:10:09.721Z,22.07
2023-09-19T03:11:09.695Z,22.06
2023-09-19T03:12:09.684Z,22.00
2023-09-19T03:13:09.709Z,21.95
2023-09-19T03:14:09.670Z,21.89
2023-09-19T03:15:09.701Z,21.80
2023-09-19T03:16:09.748Z,21.89
2023-09-19T03:17:09.702Z,21.80
2023-09-19T03:18:09.655Z,21.82
2023-09-19T03:19:09.628Z,21.72
2023-09-19T03:20:09.603Z,21.58
2023-09-19T03:21:09.620Z,21.61
2023-09-19T03:22:09.572Z,21.64
2023-09-19T03:23:09.576Z,21.54
2023-09-19T03:24:09.553Z,21.55
2023-09-19T03:25:09.590Z,21.50
2023-09-19T03:26:09.525Z,21.42
2023-09-19T03:27:09.521Z,21.32
2023-09-19T03:28:09.504Z,21.29
2023-09-19T03:29:09.495Z,21.17
2023-09-19T03:30:09.485Z,21.18
2023-09-19T03:31:09.537Z,21.05
2023-09-19T03:32:09.475Z,20.99
2023-09-19T03:33:09.464Z,20.99
2023-09-19T03:34:09.443Z,20.85
2023-09-19T03:35:09.427Z,20.87
2023-09-19T03:36:09.419Z,20.66
2023-09-19T03:37:09.432Z,20.63
2023-09-19T03:38:09.394Z,20.51
2023-09-19T03:39:09.382Z,20.43
2023-09-19T03:40:09.374Z,20.36
2023-09-19T03:41:09.363Z,20.31
2023-09-19T03:42:09.350Z,20.24
2023-09-19T03:43:09.357Z,20.13
2023-09-19T03:44:09.326Z,20.09
2023-09-19T03:45:09.314Z,20.07
2023-09-19T03:46:09.366Z,19.94
2023-09-19T03:47:09.438Z,19.86
2023-09-19T03:48:09.342Z,19.86
2023-09-19T03:49:09.329Z,19.96
2023-09-19T03:50:09.259Z,19.86
2023-09-19T03:51:09.288Z,19.84
2023-09-19T03:52:09.316Z,19.79
2023-09-19T03:53:09.222Z,19.70
2023-09-19T03:54:09.222Z,19.66
2023-09-19T03:55:09.242Z,19.62
2023-09-19T03:56:09.189Z,19.49
2023-09-19T03:57:09.181Z,19.55
2023-09-19T03:58:09.176Z,19.41
2023-09-19T03:59:09.203Z,19.40
2023-09-19T04:00:09.143Z,19.34
2023-09-19T04:01:09.251Z,19.37
2023-09-19T04:02:09.126Z,19.33
2023-09-19T04:03:09.277Z,19.39
2023-09-19T04:04:09.130Z,19.31
2023-09-19T04:05:09.102Z,19.29
2023-09-19T04:06:09.089Z,19.27
2023-09-19T04:07:09.102Z,19.24
2023-09-19T04:08:09.054Z,19.27
2023-09-19T04:09:11.002Z,19.24
2023-09-19T04:10:09.043Z,19.24
2023-09-19T04:11:09.041Z,19.27
2023-09-19T04:12:09.022Z,19.26
2023-09-19T04:13:09.023Z,19.33
2023-09-19T04:14:08.994Z,19.27
2023-09-19T04:15:08.982Z,19.26
2023-09-19T04:16:08.985Z,19.24
2023-09-19T04:17:11.566Z,19.24
2023-09-19T04:18:08.979Z,19.24
2023-09-19T04:19:10.140Z,19.26
2023-09-19T04:20:08.921Z,19.27
2023-09-19T04:21:08.909Z,19.27
2023-09-19T04:22:08.933Z,19.24
2023-09-19T04:23:08.904Z,19.26
2023-09-19T04:24:08.963Z,19.27
2023-09-19T04:25:08.904Z,19.27
2023-09-19T04:26:08.854Z,19.22
2023-09-19T04:27:08.841Z,19.29
2023-09-19T04:28:08.834Z,19.27
2023-09-19T04:29:08.820Z,19.29
2023-09-19T04:30:08.855Z,19.29
2023-09-19T04:31:08.834Z,19.30
2023-09-19T04:32:08.794Z,19.39
2023-09-19T04:33:08.855Z,19.33
2023-09-19T04:34:08.811Z,19.39
2023-09-19T04:35:08.773Z,19.31
2023-09-19T04:36:35.481Z,19.41
2023-09-19T04:37:09.751Z,19.44
2023-09-19T04:38:08.749Z,19.39
2023-09-19T04:39:08.773Z,19.40
2023-09-19T04:40:08.696Z,19.39
2023-09-19T04:41:08.765Z,19.40
2023-09-19T04:42:08.678Z,19.51
2023-09-19T04:43:08.701Z,19.44
2023-09-19T04:44:08.715Z,19.45
2023-09-19T04:45:08.655Z,19.48
2023-09-19T04:46:08.672Z,19.48
2023-09-19T04:47:08.709Z,19.63
2023-09-19T04:48:08.665Z,19.48
2023-09-19T04:49:08.656Z,19.54
2023-09-19T04:50:08.587Z,19.51
2023-09-19T04:51:08.597Z,19.58
2023-09-19T04:52:08.567Z,19.63
2023-09-19T04:53:08.570Z,19.70
2023-09-19T04:54:08.543Z,19.67
2023-09-19T04:55:08.570Z,19.63
2023-09-19T04:56:08.595Z,19.67
2023-09-19T04:57:08.508Z,19.74
2023-09-19T04:58:08.493Z,19.64
2023-09-19T04:59:08.509Z,19.73
2023-09-19T05:00:08.471Z,19.77
2023-09-19T05:01:08.493Z,19.79
2023-09-19T05:02:08.502Z,19.74
2023-09-19T05:03:08.595Z,19.79
2023-09-19T05:04:08.429Z,19.79
2023-09-19T05:05:08.456Z,19.79
2023-09-19T05:06:08.430Z,19.81
2023-09-19T05:07:08.445Z,19.86
2023-09-19T05:08:08.436Z,19.88
2023-09-19T05:09:08.375Z,19.85
2023-09-19T05:10:08.358Z,19.85
2023-09-19T05:11:08.376Z,19.88
2023-09-19T05:12:08.351Z,19.95
2023-09-19T05:13:08.358Z,19.84
2023-09-19T05:14:08.317Z,19.89
2023-09-19T05:15:08.313Z,19.92
2023-09-19T05:16:08.388Z,19.88
2023-09-19T05:17:08.346Z,19.88
2023-09-19T05:18:08.355Z,19.88
2023-09-19T05:19:08.282Z,19.85
2023-09-19T05:20:08.317Z,19.84
2023-09-19T05:21:08.278Z,19.86
2023-09-19T05:22:08.239Z,19.88
2023-09-19T05:23:08.218Z,19.85
2023-09-19T05:24:10.169Z,19.81
2023-09-19T05:25:08.233Z,19.84
2023-09-19T05:26:08.216Z,19.76
2023-09-19T05:27:08.172Z,19.82
2023-09-19T05:28:08.192Z,19.86
2023-09-19T05:29:08.206Z,19.91
2023-09-19T05:30:08.145Z,19.86
2023-09-19T05:31:08.230Z,19.88
2023-09-19T05:32:08.216Z,19.88
2023-09-19T05:33:08.104Z,19.96
2023-09-19T05:34:08.097Z,19.94
2023-09-19T05:35:08.113Z,19.86
2023-09-19T05:36:08.739Z,19.95
2023-09-19T05:37:11.537Z,19.84
2023-09-19T05:38:08.133Z,19.89
2023-09-19T05:39:08.143Z,19.94
2023-09-19T05:40:08.050Z,20.00
2023-09-19T05:41:08.085Z,19.96
2023-09-19T05:42:08.262Z,20.00
2023-09-19T05:43:08.033Z,20.02
2023-09-19T05:44:08.097Z,20.13
2023-09-19T05:45:08.066Z,20.07
2023-09-19T05:46:07.996Z,20.19
2023-09-19T05:47:08.030Z,20.24
2023-09-19T05:48:07.954Z,20.32
2023-09-19T05:49:08.020Z,20.36
2023-09-19T05:50:07.916Z,20.48
2023-09-19T05:51:08.016Z,20.50
2023-09-19T05:52:07.904Z,20.58
2023-09-19T05:53:08.031Z,20.70
2023-09-19T05:54:07.870Z,20.75
2023-09-19T05:55:07.899Z,20.88
2023-09-19T05:56:07.908Z,20.93
2023-09-19T05:57:07.838Z,20.92
2023-09-19T05:58:07.895Z,20.97
2023-09-19T05:59:07.810Z,21.03
2023-09-19T06:00:07.947Z,21.15
2023-09-19T06:01:07.980Z,21.14
2023-09-19T06:02:07.854Z,21.18
2023-09-19T06:03:07.814Z,21.27
2023-09-19T06:04:07.807Z,21.33
2023-09-19T06:05:07.748Z,21.32
2023-09-19T06:06:07.729Z,21.37
2023-09-19T06:07:07.747Z,21.30
2023-09-19T06:08:07.711Z,21.32
2023-09-19T06:09:07.768Z,21.29
2023-09-19T06:10:07.703Z,21.24
2023-09-19T06:11:07.682Z,21.15
2023-09-19T06:12:07.699Z,21.07
2023-09-19T06:13:07.687Z,21.06
2023-09-19T06:14:07.642Z,20.99
2023-09-19T06:15:07.632Z,20.95
2023-09-19T06:16:07.641Z,20.95
2023-09-19T06:17:07.645Z,20.87
2023-09-19T06:18:07.638Z,20.84
2023-09-19T06:19:07.607Z,20.77
2023-09-19T06:20:07.575Z,20.67
2023-09-19T06:21:07.565Z,20.67
2023-09-19T06:22:07.577Z,20.75
2023-09-19T06:23:07.629Z,20.69
2023-09-19T06:24:07.531Z,20.65
2023-09-19T06:25:08.675Z,20.59
2023-09-19T06:26:07.524Z,20.60
2023-09-19T06:27:07.498Z,20.56
2023-09-19T06:28:07.517Z,20.52
2023-09-19T06:29:07.474Z,20.51
2023-09-19T06:30:08.254Z,20.52
2023-09-19T06:31:07.475Z,20.62
2023-09-19T06:32:07.555Z,20.58
2023-09-19T06:33:07.448Z,20.58
2023-09-19T06:34:07.421Z,20.55
2023-09-19T06:35:07.433Z,20.58
2023-09-19T06:36:07.421Z,20.55
2023-09-19T06:37:07.414Z,20.51
2023-09-19T06:38:07.377Z,20.44
2023-09-19T06:39:07.369Z,20.48
2023-09-19T06:40:07.363Z,20.47
2023-09-19T06:41:07.388Z,20.31
2023-09-19T06:42:07.373Z,20.36
2023-09-19T06:43:07.367Z,20.34
2023-09-19T06:44:07.379Z,20.34
2023-09-19T06:45:07.359Z,20.24
2023-09-19T06:46:07.398Z,20.26
2023-09-19T06:47:07.344Z,20.26
2023-09-19T06:48:07.311Z,20.18
2023-09-19T06:49:07.441Z,20.07
2023-09-19T06:50:07.265Z,20.16
2023-09-19T06:51:07.246Z,20.02
2023-09-19T06:52:07.219Z,20.04
2023-09-19T06:53:07.212Z,19.89
2023-09-19T06:54:07.272Z,19.99
2023-09-19T06:55:07.234Z,19.94
2023-09-19T06:56:07.232Z,19.94
2023-09-19T06:57:07.175Z,19.86
2023-09-19T06:58:07.251Z,19.86
2023-09-19T06:59:07.174Z,19.85
2023-09-19T07:00:07.187Z,19.82
2023-09-19T07:01:07.241Z,19.86
2023-09-19T07:02:07.252Z,19.84
2023-09-19T07:03:07.152Z,19.79
2023-09-19T07:04:07.128Z,19.84
2023-09-19T07:05:07.073Z,19.79
2023-09-19T07:06:07.064Z,19.70
2023-09-19T07:07:07.071Z,19.74
2023-09-19T07:08:07.045Z,19.71
2023-09-19T07:09:07.032Z,19.76
2023-09-19T07:10:07.020Z,19.71
2023-09-19T07:11:07.069Z,19.70
2023-09-19T07:12:07.754Z,19.69
2023-09-19T07:13:07.013Z,19.64
2023-09-19T07:14:07.062Z,19.77
2023-09-19T07:15:07.005Z,19.70
2023-09-19T07:16:06.998Z,19.63
2023-09-19T07:17:06.995Z,19.58
2023-09-19T07:18:06.986Z,19.64
2023-09-19T07:19:06.946Z,19.70
2023-09-19T07:20:06.919Z,19.58
2023-09-19T07:21:07.092Z,19.49
2023-09-19T07:22:06.882Z,19.52
2023-09-19T07:23:06.890Z,19.51
2023-09-19T07:24:06.865Z,19.39
2023-09-19T07:25:06.877Z,19.40
2023-09-19T07:26:06.849Z,19.39
2023-09-19T07:27:06.912Z,19.39
2023-09-19T07:28:06.823Z,19.34
2023-09-19T07:29:06.810Z,19.24
2023-09-19T07:30:06.796Z,19.18
2023-09-19T07:31:06.852Z,19.09
2023-09-19T07:32:06.916Z,19.09
2023-09-19T07:33:06.887Z,19.07
2023-09-19T07:34:06.745Z,18.96
2023-09-19T07:35:06.746Z,18.93
2023-09-19T07:36:06.756Z,18.92
2023-09-19T07:37:06.744Z,18.99
2023-09-19T07:38:06.732Z,18.95
2023-09-19T07:39:20.922Z,18.90
2023-09-19T07:40:07.726Z,18.98
2023-09-19T07:41:06.742Z,18.93
2023-09-19T07:42:06.683Z,18.95
2023-09-19T07:43:06.714Z,18.92
2023-09-19T07:44:06.709Z,19.04
2023-09-19T07:45:06.670Z,18.95
2023-09-19T07:46:06.730Z,19.04
2023-09-19T07:47:06.640Z,18.99
2023-09-19T07:48:06.774Z,19.04
2023-09-19T07:49:06.604Z,19.09
2023-09-19T07:50:06.606Z,19.02
2023-09-19T07:51:06.585Z,19.04
2023-09-19T07:52:06.544Z,19.02
2023-09-19T07:53:07.316Z,19.15
2023-09-19T07:54:06.633Z,19.22
2023-09-19T07:55:06.551Z,19.27
2023-09-19T07:56:07.340Z,19.41
2023-09-19T07:57:06.489Z,19.39
2023-09-19T07:58:06.532Z,19.34
2023-09-19T07:59:06.527Z,19.36
2023-09-19T08:00:06.463Z,19.51
2023-09-19T08:01:06.525Z,19.45
2023-09-19T08:02:06.486Z,19.51
2023-09-19T08:03:13.004Z,19.62
2023-09-19T08:04:07.556Z,19.71
2023-09-19T08:05:06.513Z,19.82
2023-09-19T08:06:06.393Z,19.85
2023-09-19T08:07:06.400Z,19.94
2023-09-19T08:08:06.392Z,19.92
2023-09-19T08:09:06.365Z,19.92
2023-09-19T08:10:06.345Z,20.02
2023-09-19T08:11:06.359Z,20.03
2023-09-19T08:12:06.333Z,20.13
2023-09-19T08:13:06.332Z,20.16
2023-09-19T08:14:06.335Z,20.13
2023-09-19T08:15:06.293Z,20.28
2023-09-19T08:16:06.369Z,20.26
2023-09-19T08:17:06.455Z,20.28
2023-09-19T08:18:06.349Z,20.34
2023-09-19T08:19:06.362Z,20.36
2023-09-19T08:20:06.310Z,20.36
2023-09-19T08:21:06.234Z,20.37
2023-09-19T08:22:06.208Z,20.39
2023-09-19T08:23:06.248Z,20.39
2023-09-19T08:24:06.246Z,20.43
2023-09-19T08:25:06.248Z,20.36
2023-09-19T08:26:06.226Z,20.40
2023-09-19T08:27:06.159Z,20.44
2023-09-19T08:28:06.152Z,20.39
2023-09-19T08:29:06.809Z,20.43
2023-09-19T08:30:06.122Z,20.47
2023-09-19T08:31:06.199Z,20.41
2023-09-19T08:32:06.310Z,20.47
2023-09-19T08:33:06.138Z,20.47
2023-09-19T08:34:06.138Z,20.52
2023-09-19T08:35:07.508Z,20.50
2023-09-19T08:36:06.126Z,20.47
2023-09-19T08:37:06.083Z,20.48
2023-09-19T08:38:06.078Z,20.50
2023-09-19T08:39:06.056Z,20.47
2023-09-19T08:40:06.039Z,20.48
2023-09-19T08:41:06.089Z,20.55
2023-09-19T08:42:06.006Z,20.51
2023-09-19T08:43:06.012Z,20.47
2023-09-19T08:44:08.217Z,20.47
2023-09-19T08:45:05.955Z,20.52
2023-09-19T08:46:05.965Z,20.59
2023-09-19T08:47:06.020Z,20.51
2023-09-19T08:48:05.948Z,20.55
2023-09-19T08:49:05.928Z,20.52
2023-09-19T08:50:05.936Z,20.56
2023-09-19T08:51:05.898Z,20.51
2023-09-19T08:52:05.967Z,20.59
2023-09-19T08:53:05.904Z,20.67
2023-09-19T08:54:05.901Z,20.67
2023-09-19T08:55:05.871Z,20.60
2023-09-19T08:56:05.895Z,20.74
2023-09-19T08:57:07.234Z,20.77
2023-09-19T08:58:05.855Z,20.78
2023-09-19T08:59:05.822Z,20.67
2023-09-19T09:00:05.787Z,20.66
2023-09-19T09:01:05.991Z,20.74
2023-09-19T09:02:05.801Z,20.74
2023-09-19T09:03:05.811Z,20.78
2023-09-19T09:04:06.332Z,20.75
2023-09-19T09:05:05.769Z,20.84
2023-09-19T09:06:05.773Z,20.96
2023-09-19T09:07:06.814Z,21.00
2023-09-19T09:08:05.800Z,21.02
2023-09-19T09:09:05.684Z,20.93
2023-09-19T09:10:05.673Z,21.06
2023-09-19T09:11:05.685Z,21.14
2023-09-19T09:12:05.653Z,21.09
2023-09-19T09:13:05.659Z,21.11
2023-09-19T09:14:05.630Z,21.14
2023-09-19T09:15:05.622Z,21.15
2023-09-19T09:16:05.610Z,21.18
2023-09-19T09:17:05.678Z,21.18
2023-09-19T09:18:05.641Z,21.21
2023-09-19T09:19:05.658Z,21.22
2023-09-19T09:20:05.586Z,21.24
2023-09-19T09:21:05.545Z,21.15
2023-09-19T09:22:05.537Z,21.27
2023-09-19T09:23:05.539Z,21.35
2023-09-19T09:24:05.596Z,21.42
2023-09-19T09:25:05.558Z,21.37
2023-09-19T09:26:05.512Z,21.36
2023-09-19T09:27:07.142Z,21.45
2023-09-19T09:28:05.475Z,21.40
2023-09-19T09:29:05.533Z,21.46
2023-09-19T09:30:05.455Z,21.52
2023-09-19T09:31:05.505Z,21.54
2023-09-19T09:32:05.476Z,21.58
2023-09-19T09:33:12.183Z,21.60
2023-09-19T09:34:06.411Z,21.58
2023-09-19T09:35:05.433Z,21.72
2023-09-19T09:36:05.388Z,21.54
2023-09-19T09:37:05.406Z,21.69
2023-09-19T09:38:05.412Z,21.67
2023-09-19T09:39:05.352Z,21.66
2023-09-19T09:40:05.372Z,21.64
2023-09-19T09:41:05.366Z,21.55
2023-09-19T09:42:05.317Z,21.57
2023-09-19T09:43:05.358Z,21.57
2023-09-19T09:44:05.330Z,21.55
2023-09-19T09:45:05.336Z,21.57
2023-09-19T09:46:05.290Z,21.57
2023-09-19T09:47:05.314Z,21.55
2023-09-19T09:48:05.361Z,21.58
2023-09-19T09:49:05.286Z,21.57
2023-09-19T09:50:05.255Z,21.69
2023-09-19T09:51:05.221Z,21.61
2023-09-19T09:52:05.287Z,21.70
2023-09-19T09:53:05.231Z,21.64
2023-09-19T09:54:05.180Z,21.57
2023-09-19T09:55:05.210Z,21.57
2023-09-19T09:56:05.266Z,21.57
2023-09-19T09:57:05.152Z,21.54
2023-09-19T09:58:05.132Z,21.51
2023-09-19T09:59:05.156Z,21.57
2023-09-19T10:00:05.172Z,21.60
2023-09-19T10:01:05.215Z,21.50
2023-09-19T10:02:05.197Z,21.43
2023-09-19T10:03:05.236Z,21.48
2023-09-19T10:04:05.120Z,21.48
2023-09-19T10:05:05.102Z,21.42
2023-09-19T10:06:05.042Z,21.51
2023-09-19T10:07:05.044Z,21.43
2023-09-19T10:08:05.051Z,21.46
2023-09-19T10:09:05.066Z,21.42
2023-09-19T10:10:04.998Z,21.36
2023-09-19T10:11:05.054Z,21.35
2023-09-19T10:12:05.018Z,21.46
2023-09-19T10:13:05.019Z,21.37
2023-09-19T10:14:05.008Z,21.35
2023-09-19T10:15:04.944Z,21.46
2023-09-19T10:16:05.829Z,21.39
2023-09-19T10:17:05.098Z,21.42
2023-09-19T10:18:04.954Z,21.33
2023-09-19T10:19:04.951Z,21.32
2023-09-19T10:20:04.975Z,21.39
2023-09-19T10:21:04.880Z,21.30
2023-09-19T10:22:04.866Z,21.24
2023-09-19T10:23:04.917Z,21.25
2023-09-19T10:24:05.825Z,21.21
2023-09-19T10:25:04.846Z,21.20
2023-09-19T10:26:04.870Z,21.20
2023-09-19T10:27:04.813Z,21.24
2023-09-19T10:28:04.881Z,21.15
2023-09-19T10:29:04.821Z,21.17
2023-09-19T10:30:05.831Z,21.18
2023-09-19T10:31:04.774Z,21.20
2023-09-19T10:32:04.834Z,21.18
2023-09-19T10:33:04.796Z,21.24
2023-09-19T10:34:04.753Z,21.21
2023-09-19T10:35:04.786Z,21.09
2023-09-19T10:36:04.733Z,21.05
2023-09-19T10:37:04.769Z,21.09
2023-09-19T10:38:04.701Z,21.11
2023-09-19T10:39:04.678Z,21.09
2023-09-19T10:40:04.675Z,20.96
2023-09-19T10:41:04.720Z,20.93
2023-09-19T10:42:04.731Z,20.99
2023-09-19T10:43:04.652Z,20.97
2023-09-19T10:44:04.679Z,20.92
2023-09-19T10:45:04.605Z,20.82
2023-09-19T10:46:04.659Z,20.84
2023-09-19T10:47:04.643Z,20.82
2023-09-19T10:48:04.690Z,20.88
2023-09-19T10:49:04.661Z,20.85
2023-09-19T10:50:04.657Z,20.82
2023-09-19T10:51:04.546Z,20.84
2023-09-19T10:52:04.555Z,20.82
2023-09-19T10:53:05.663Z,20.90
2023-09-19T10:54:04.534Z,20.82
2023-09-19T10:55:04.551Z,20.80
2023-09-19T10:56:04.488Z,20.78
2023-09-19T10:57:04.677Z,20.87
2023-09-19T10:58:04.469Z,20.87
2023-09-19T10:59:04.555Z,20.88
2023-09-19T11:00:04.497Z,20.87
2023-09-19T11:01:04.460Z,20.84
2023-09-19T11:02:04.580Z,20.82
2023-09-19T11:03:04.709Z,20.72
2023-09-19T11:04:04.481Z,20.74
2023-09-19T11:05:04.489Z,20.74
2023-09-19T11:06:04.414Z,20.67
2023-09-19T11:07:04.367Z,20.58
2023-09-19T11:08:04.393Z,20.52
2023-09-19T11:09:04.404Z,20.47
2023-09-19T11:10:04.325Z,20.44
2023-09-19T11:11:04.387Z,20.31
2023-09-19T11:12:04.338Z,20.32
2023-09-19T11:13:04.293Z,20.28
2023-09-19T11:14:04.312Z,20.22
2023-09-19T11:15:04.292Z,20.13
2023-09-19T11:16:04.324Z,20.09
2023-09-19T11:17:04.269Z,20.03
2023-09-19T11:18:04.311Z,20.07
2023-09-19T11:19:04.225Z,20.00
2023-09-19T11:20:04.309Z,19.99
2023-09-19T11:21:04.205Z,19.85
2023-09-19T11:22:04.192Z,19.94
2023-09-19T11:23:04.210Z,19.96
2023-09-19T11:24:04.199Z,19.89
2023-09-19T11:25:04.166Z,19.84
2023-09-19T11:26:04.241Z,19.73
2023-09-19T11:27:04.853Z,19.69
2023-09-19T11:28:05.422Z,19.63
2023-09-19T11:29:04.160Z,19.54
2023-09-19T11:30:04.114Z,19.49
2023-09-19T11:31:04.122Z,19.48
2023-09-19T11:32:04.166Z,19.41
2023-09-19T11:33:04.239Z,19.40
2023-09-19T11:34:04.050Z,19.39
2023-09-19T11:35:04.066Z,19.40
2023-09-19T11:36:04.075Z,19.40
2023-09-19T11:37:04.029Z,19.40
2023-09-19T11:38:04.155Z,19.39
2023-09-19T11:39:04.000Z,19.37
2023-09-19T11:40:03.990Z,19.37
2023-09-19T11:41:04.076Z,19.41
2023-09-19T11:42:03.981Z,19.41
2023-09-19T11:43:03.993Z,19.44
2023-09-19T11:44:04.010Z,19.48
2023-09-19T11:45:03.929Z,19.52
2023-09-19T11:46:03.994Z,19.44
2023-09-19T11:47:04.052Z,19.48
2023-09-19T11:48:04.021Z,19.45
2023-09-19T11:49:03.886Z,19.52
2023-09-19T11:50:03.950Z,19.52
2023-09-19T11:51:03.959Z,19.45
2023-09-19T11:52:03.868Z,19.52
2023-09-19T11:53:03.894Z,19.48
2023-09-19T11:54:03.884Z,19.55
2023-09-19T11:55:03.871Z,19.52
2023-09-19T11:56:03.851Z,19.49
2023-09-19T11:57:03.876Z,19.48
2023-09-19T11:58:03.827Z,19.52
2023-09-19T11:59:03.810Z,19.52
2023-09-19T12:00:03.807Z,19.49
2023-09-19T12:01:03.904Z,19.56
2023-09-19T12:02:03.771Z,19.58
2023-09-19T12:03:03.907Z,19.52
2023-09-19T12:04:03.791Z,19.48
2023-09-19T12:05:03.742Z,19.56
2023-09-19T12:06:03.716Z,19.62
2023-09-19T12:07:03.707Z,19.63
2023-09-19T12:08:04.641Z,19.64
2023-09-19T12:09:03.682Z,19.69
2023-09-19T12:10:03.675Z,19.73
2023-09-19T12:11:03.704Z,19.88
2023-09-19T12:12:03.718Z,19.89
2023-09-19T12:13:03.612Z,19.86
2023-09-19T12:14:03.751Z,19.86
2023-09-19T12:15:03.593Z,19.88
2023-09-19T12:16:03.621Z,19.88
2023-09-19T12:17:03.661Z,19.94
2023-09-19T12:18:03.713Z,19.88
2023-09-19T12:19:03.552Z,19.91
2023-09-19T12:20:03.682Z,19.95
2023-09-19T12:21:03.538Z,19.94
2023-09-19T12:22:03.553Z,19.91
2023-09-19T12:23:03.568Z,19.86
2023-09-19T12:24:03.522Z,19.88
2023-09-19T12:25:03.549Z,19.92
2023-09-19T12:26:03.538Z,19.85
2023-09-19T12:27:03.498Z,19.81
2023-09-19T12:28:03.453Z,19.86
2023-09-19T12:29:03.541Z,19.88
2023-09-19T12:30:17.060Z,19.84
2023-09-19T12:31:04.478Z,19.86
2023-09-19T12:32:03.428Z,19.95
2023-09-19T12:33:03.448Z,19.92
2023-09-19T12:34:03.593Z,19.95
2023-09-19T12:35:03.388Z,19.88
2023-09-19T12:36:03.538Z,20.04
2023-09-19T12:37:03.348Z,19.92
2023-09-19T12:38:03.365Z,20.00
2023-09-19T12:39:03.365Z,19.96
2023-09-19T12:40:03.319Z,19.94
2023-09-19T12:41:03.351Z,20.02
2023-09-19T12:42:03.363Z,20.00
2023-09-19T12:43:03.281Z,20.02
2023-09-19T12:44:03.356Z,20.10
2023-09-19T12:45:03.258Z,20.13
2023-09-19T12:46:03.303Z,20.16
2023-09-19T12:47:03.292Z,20.24
2023-09-19T12:48:03.317Z,20.32
2023-09-19T12:49:03.311Z,20.36
2023-09-19T12:50:03.285Z,20.43
2023-09-19T12:51:03.278Z,20.37
2023-09-19T12:52:03.311Z,20.50